sensor_id;sensor_type;location;lat;lon;timestamp;pressure;altitude;pressure_sealevel;temperature;humidity
28289;BME280;15558;50.874;6.964;2022-07-23T00:00:56;101321.34;;;23.89;56.30
28289;BME280;15558;50.874;6.964;2022-07-23T00:03:22;101334.75;;;23.85;56.88
28289;BME280;15558;50.874;6.964;2022-07-23T00:05:47;101331.44;;;23.83;56.82
28289;BME280;15558;50.874;6.964;2022-07-23T00:08:13;101335.50;;;23.82;57.01
28289;BME280;15558;50.874;6.964;2022-07-23T00:10:39;101333.94;;;23.84;57.07
28289;BME280;15558;50.874;6.964;2022-07-23T00:13:05;101333.75;;;23.77;57.21
28289;BME280;15558;50.874;6.964;2022-07-23T00:15:31;101336.25;;;23.79;57.12
28289;BME280;15558;50.874;6.964;2022-07-23T00:17:57;101331.34;;;23.79;57.38
28289;BME280;15558;50.874;6.964;2022-07-23T00:20:23;101337.91;;;23.80;57.52
28289;BME280;15558;50.874;6.964;2022-07-23T00:22:54;101335.31;;;23.75;57.68
28289;BME280;15558;50.874;6.964;2022-07-23T00:25:22;101338.13;;;23.71;57.74
28289;BME280;15558;50.874;6.964;2022-07-23T00:27:48;101339.59;;;23.65;57.84
28289;BME280;15558;50.874;6.964;2022-07-23T00:30:14;101326.91;;;23.66;57.86
28289;BME280;15558;50.874;6.964;2022-07-23T00:32:54;101333.41;;;23.63;58.63
28289;BME280;15558;50.874;6.964;2022-07-23T00:35:27;101332.94;;;23.61;58.30
28289;BME280;15558;50.874;6.964;2022-07-23T00:37:54;101327.03;;;23.55;58.47
28289;BME280;15558;50.874;6.964;2022-07-23T00:40:21;101329.88;;;23.55;58.33
28289;BME280;15558;50.874;6.964;2022-07-23T00:42:47;101335.97;;;23.53;58.25
28289;BME280;15558;50.874;6.964;2022-07-23T00:45:13;101330.63;;;23.52;58.42
28289;BME280;15558;50.874;6.964;2022-07-23T00:47:39;101341.91;;;23.45;59.33
28289;BME280;15558;50.874;6.964;2022-07-23T00:50:08;101336.06;;;23.41;59.60
28289;BME280;15558;50.874;6.964;2022-07-23T00:52:34;101336.84;;;23.38;59.85
28289;BME280;15558;50.874;6.964;2022-07-23T00:55:02;101343.38;;;23.39;59.97
28289;BME280;15558;50.874;6.964;2022-07-23T00:57:28;101345.69;;;23.33;60.00
28289;BME280;15558;50.874;6.964;2022-07-23T00:59:54;101341.44;;;23.27;60.15
28289;BME280;15558;50.874;6.964;2022-07-23T01:02:20;101350.31;;;23.23;60.46
28289;BME280;15558;50.874;6.964;2022-07-23T01:04:46;101339.97;;;23.18;60.29
28289;BME280;15558;50.874;6.964;2022-07-23T01:07:12;101337.75;;;23.12;60.48
28289;BME280;15558;50.874;6.964;2022-07-23T01:09:38;101338.09;;;23.10;60.28
28289;BME280;15558;50.874;6.964;2022-07-23T01:12:04;101332.84;;;23.12;60.22
28289;BME280;15558;50.874;6.964;2022-07-23T01:14:30;101320.34;;;23.05;60.25
28289;BME280;15558;50.874;6.964;2022-07-23T01:16:56;101326.06;;;23.05;60.28
28289;BME280;15558;50.874;6.964;2022-07-23T01:19:22;101330.16;;;23.04;60.03
28289;BME280;15558;50.874;6.964;2022-07-23T01:21:51;101316.59;;;23.01;59.70
28289;BME280;15558;50.874;6.964;2022-07-23T01:24:18;101311.22;;;22.99;60.01
28289;BME280;15558;50.874;6.964;2022-07-23T01:26:48;101311.47;;;22.94;60.05
28289;BME280;15558;50.874;6.964;2022-07-23T01:29:15;101309.28;;;23.03;59.59
28289;BME280;15558;50.874;6.964;2022-07-23T01:31:42;101312.78;;;22.97;59.55
28289;BME280;15558;50.874;6.964;2022-07-23T01:34:08;101313.97;;;22.96;59.64
28289;BME280;15558;50.874;6.964;2022-07-23T01:36:36;101318.31;;;22.90;60.32
28289;BME280;15558;50.874;6.964;2022-07-23T01:39:03;101321.75;;;22.95;60.00
28289;BME280;15558;50.874;6.964;2022-07-23T01:41:29;101319.88;;;22.88;60.19
28289;BME280;15558;50.874;6.964;2022-07-23T01:43:56;101316.56;;;22.86;60.51
28289;BME280;15558;50.874;6.964;2022-07-23T01:46:22;101300.56;;;22.85;61.34
28289;BME280;15558;50.874;6.964;2022-07-23T01:48:48;101302.56;;;22.84;62.21
28289;BME280;15558;50.874;6.964;2022-07-23T01:51:15;101313.81;;;22.77;62.16
28289;BME280;15558;50.874;6.964;2022-07-23T01:53:40;101320.66;;;22.73;62.78
28289;BME280;15558;50.874;6.964;2022-07-23T01:56:06;101321.19;;;22.63;63.99
28289;BME280;15558;50.874;6.964;2022-07-23T01:58:33;101324.88;;;22.63;64.50
28289;BME280;15558;50.874;6.964;2022-07-23T02:00:59;101319.78;;;22.57;65.16
28289;BME280;15558;50.874;6.964;2022-07-23T02:03:25;101311.94;;;22.54;65.59
28289;BME280;15558;50.874;6.964;2022-07-23T02:05:51;101325.03;;;22.55;66.00
28289;BME280;15558;50.874;6.964;2022-07-23T02:08:17;101318.84;;;22.53;66.33
28289;BME280;15558;50.874;6.964;2022-07-23T02:10:43;101314.59;;;22.47;66.90
28289;BME280;15558;50.874;6.964;2022-07-23T02:13:10;101317.00;;;22.45;66.78
28289;BME280;15558;50.874;6.964;2022-07-23T02:15:36;101304.81;;;22.48;66.78
28289;BME280;15558;50.874;6.964;2022-07-23T02:18:02;101293.81;;;22.50;66.88
28289;BME280;15558;50.874;6.964;2022-07-23T02:20:27;101288.47;;;22.49;66.86
28289;BME280;15558;50.874;6.964;2022-07-23T02:22:53;101293.47;;;22.52;66.97
28289;BME280;15558;50.874;6.964;2022-07-23T02:25:19;101298.13;;;22.44;67.24
28289;BME280;15558;50.874;6.964;2022-07-23T02:27:45;101305.06;;;22.43;67.16
28289;BME280;15558;50.874;6.964;2022-07-23T02:30:11;101302.94;;;22.40;67.39
28289;BME280;15558;50.874;6.964;2022-07-23T02:32:37;101305.25;;;22.35;67.69
28289;BME280;15558;50.874;6.964;2022-07-23T02:35:05;101304.97;;;22.40;67.94
28289;BME280;15558;50.874;6.964;2022-07-23T02:37:31;101311.31;;;22.33;67.89
28289;BME280;15558;50.874;6.964;2022-07-23T02:39:58;101306.06;;;22.35;68.03
28289;BME280;15558;50.874;6.964;2022-07-23T02:42:23;101307.34;;;22.38;68.12
28289;BME280;15558;50.874;6.964;2022-07-23T02:44:50;101295.31;;;22.32;68.70
28289;BME280;15558;50.874;6.964;2022-07-23T02:47:17;101296.06;;;22.29;68.50
28289;BME280;15558;50.874;6.964;2022-07-23T02:49:43;101303.56;;;22.34;68.08
28289;BME280;15558;50.874;6.964;2022-07-23T02:52:09;101301.03;;;22.32;68.66
28289;BME280;15558;50.874;6.964;2022-07-23T02:54:36;101295.13;;;22.25;68.41
28289;BME280;15558;50.874;6.964;2022-07-23T02:57:03;101291.31;;;22.21;68.72
28289;BME280;15558;50.874;6.964;2022-07-23T02:59:30;101300.53;;;22.15;68.30
28289;BME280;15558;50.874;6.964;2022-07-23T03:01:56;101295.63;;;22.16;68.32
28289;BME280;15558;50.874;6.964;2022-07-23T03:04:22;101301.13;;;22.09;68.48
28289;BME280;15558;50.874;6.964;2022-07-23T03:06:48;101306.84;;;22.09;68.28
28289;BME280;15558;50.874;6.964;2022-07-23T03:09:14;101308.06;;;22.08;68.25
28289;BME280;15558;50.874;6.964;2022-07-23T03:11:40;101299.16;;;21.97;68.70
28289;BME280;15558;50.874;6.964;2022-07-23T03:14:05;101294.25;;;21.98;68.34
28289;BME280;15558;50.874;6.964;2022-07-23T03:16:33;101307.25;;;21.95;68.47
28289;BME280;15558;50.874;6.964;2022-07-23T03:18:59;101306.66;;;21.90;68.28
28289;BME280;15558;50.874;6.964;2022-07-23T03:21:25;101312.38;;;21.90;68.68
28289;BME280;15558;50.874;6.964;2022-07-23T03:23:51;101304.53;;;21.87;68.72
28289;BME280;15558;50.874;6.964;2022-07-23T03:26:17;101306.66;;;21.90;68.67
28289;BME280;15558;50.874;6.964;2022-07-23T03:28:43;101299.63;;;21.87;68.46
28289;BME280;15558;50.874;6.964;2022-07-23T03:31:09;101301.09;;;21.82;68.45
28289;BME280;15558;50.874;6.964;2022-07-23T03:33:34;101305.13;;;21.81;68.36
28289;BME280;15558;50.874;6.964;2022-07-23T03:36:00;101308.59;;;21.74;68.65
28289;BME280;15558;50.874;6.964;2022-07-23T03:38:26;101303.94;;;21.70;68.54
28289;BME280;15558;50.874;6.964;2022-07-23T03:40:52;101294.75;;;21.76;68.17
28289;BME280;15558;50.874;6.964;2022-07-23T03:43:18;101302.78;;;21.71;68.67
28289;BME280;15558;50.874;6.964;2022-07-23T03:45:44;101311.81;;;21.73;68.30
28289;BME280;15558;50.874;6.964;2022-07-23T03:48:10;101312.88;;;21.68;68.67
28289;BME280;15558;50.874;6.964;2022-07-23T03:50:36;101314.81;;;21.64;68.77
28289;BME280;15558;50.874;6.964;2022-07-23T03:53:03;101313.97;;;21.64;68.65
28289;BME280;15558;50.874;6.964;2022-07-23T03:55:28;101311.00;;;21.60;68.67
28289;BME280;15558;50.874;6.964;2022-07-23T03:57:55;101310.88;;;21.57;68.75
28289;BME280;15558;50.874;6.964;2022-07-23T04:00:21;101310.28;;;21.51;68.77
28289;BME280;15558;50.874;6.964;2022-07-23T04:02:47;101313.03;;;21.48;68.97
28289;BME280;15558;50.874;6.964;2022-07-23T04:05:13;101309.81;;;21.49;68.71
28289;BME280;15558;50.874;6.964;2022-07-23T04:07:39;101314.22;;;21.47;68.70
28289;BME280;15558;50.874;6.964;2022-07-23T04:10:06;101322.69;;;21.44;68.84
28289;BME280;15558;50.874;6.964;2022-07-23T04:12:33;101324.59;;;21.40;68.65
28289;BME280;15558;50.874;6.964;2022-07-23T04:14:59;101322.75;;;21.35;68.85
28289;BME280;15558;50.874;6.964;2022-07-23T04:17:25;101323.47;;;21.32;69.07
28289;BME280;15558;50.874;6.964;2022-07-23T04:19:51;101329.19;;;21.32;69.13
28289;BME280;15558;50.874;6.964;2022-07-23T04:22:17;101325.16;;;21.33;69.19
28289;BME280;15558;50.874;6.964;2022-07-23T04:24:42;101330.50;;;21.35;68.89
28289;BME280;15558;50.874;6.964;2022-07-23T04:27:08;101325.03;;;21.30;69.35
28289;BME280;15558;50.874;6.964;2022-07-23T04:29:34;101330.41;;;21.31;69.30
28289;BME280;15558;50.874;6.964;2022-07-23T04:32:01;101337.41;;;21.34;69.09
28289;BME280;15558;50.874;6.964;2022-07-23T04:34:27;101334.56;;;21.34;69.04
28289;BME280;15558;50.874;6.964;2022-07-23T04:36:53;101350.00;;;21.33;69.43
28289;BME280;15558;50.874;6.964;2022-07-23T04:39:19;101355.25;;;21.31;69.44
28289;BME280;15558;50.874;6.964;2022-07-23T04:41:45;101354.06;;;21.32;69.59
28289;BME280;15558;50.874;6.964;2022-07-23T04:44:11;101362.91;;;21.39;69.38
28289;BME280;15558;50.874;6.964;2022-07-23T04:46:37;101367.44;;;21.40;69.47
28289;BME280;15558;50.874;6.964;2022-07-23T04:49:03;101371.47;;;21.39;69.42
28289;BME280;15558;50.874;6.964;2022-07-23T04:51:29;101380.53;;;21.41;69.41
28289;BME280;15558;50.874;6.964;2022-07-23T04:53:55;101378.28;;;21.46;69.77
28289;BME280;15558;50.874;6.964;2022-07-23T04:56:22;101384.34;;;21.45;69.66
28289;BME280;15558;50.874;6.964;2022-07-23T04:58:48;101383.16;;;21.46;69.80
28289;BME280;15558;50.874;6.964;2022-07-23T05:01:14;101395.66;;;21.53;69.93
28289;BME280;15558;50.874;6.964;2022-07-23T05:03:40;101385.16;;;21.57;69.72
28289;BME280;15558;50.874;6.964;2022-07-23T05:06:06;101392.66;;;21.61;69.50
28289;BME280;15558;50.874;6.964;2022-07-23T05:08:32;101392.66;;;21.61;69.78
28289;BME280;15558;50.874;6.964;2022-07-23T05:10:57;101391.38;;;21.71;69.61
28289;BME280;15558;50.874;6.964;2022-07-23T05:13:23;101395.53;;;21.73;69.82
28289;BME280;15558;50.874;6.964;2022-07-23T05:15:49;101403.03;;;21.78;69.67
28289;BME280;15558;50.874;6.964;2022-07-23T05:18:15;101390.03;;;21.80;69.71
28289;BME280;15558;50.874;6.964;2022-07-23T05:20:41;101392.19;;;21.83;69.56
28289;BME280;15558;50.874;6.964;2022-07-23T05:23:07;101396.00;;;21.87;69.41
28289;BME280;15558;50.874;6.964;2022-07-23T05:25:33;101393.72;;;21.92;69.65
28289;BME280;15558;50.874;6.964;2022-07-23T05:27:59;101399.66;;;21.99;69.15
28289;BME280;15558;50.874;6.964;2022-07-23T05:30:25;101399.19;;;22.09;69.06
28289;BME280;15558;50.874;6.964;2022-07-23T05:32:51;101395.38;;;22.17;69.10
28289;BME280;15558;50.874;6.964;2022-07-23T05:35:17;101393.81;;;22.19;69.14
28289;BME280;15558;50.874;6.964;2022-07-23T05:37:43;101399.31;;;22.24;69.44
28289;BME280;15558;50.874;6.964;2022-07-23T05:40:09;101398.09;;;22.25;69.15
28289;BME280;15558;50.874;6.964;2022-07-23T05:42:39;101399.66;;;22.23;68.90
28289;BME280;15558;50.874;6.964;2022-07-23T05:45:06;101409.41;;;22.34;68.79
28289;BME280;15558;50.874;6.964;2022-07-23T05:47:43;101410.34;;;22.38;68.57
28289;BME280;15558;50.874;6.964;2022-07-23T05:50:10;101401.56;;;22.31;68.77
28289;BME280;15558;50.874;6.964;2022-07-23T05:52:36;101403.81;;;22.37;68.40
28289;BME280;15558;50.874;6.964;2022-07-23T05:55:02;101398.66;;;22.43;68.57
28289;BME280;15558;50.874;6.964;2022-07-23T05:57:28;101397.81;;;22.42;68.62
28289;BME280;15558;50.874;6.964;2022-07-23T05:59:54;101406.72;;;22.52;68.80
28289;BME280;15558;50.874;6.964;2022-07-23T06:02:20;101411.34;;;22.57;68.29
28289;BME280;15558;50.874;6.964;2022-07-23T06:04:46;101411.13;;;22.62;68.60
28289;BME280;15558;50.874;6.964;2022-07-23T06:07:12;101406.56;;;22.61;68.37
28289;BME280;15558;50.874;6.964;2022-07-23T06:09:38;101411.06;;;22.74;68.13
28289;BME280;15558;50.874;6.964;2022-07-23T06:12:04;101407.13;;;22.78;67.79
28289;BME280;15558;50.874;6.964;2022-07-23T06:14:30;101409.41;;;22.73;67.74
28289;BME280;15558;50.874;6.964;2022-07-23T06:16:56;101411.91;;;22.74;67.85
28289;BME280;15558;50.874;6.964;2022-07-23T06:19:22;101414.50;;;22.79;68.26
28289;BME280;15558;50.874;6.964;2022-07-23T06:21:47;101418.94;;;22.77;67.69
28289;BME280;15558;50.874;6.964;2022-07-23T06:24:13;101418.66;;;22.82;67.58
28289;BME280;15558;50.874;6.964;2022-07-23T06:26:39;101421.50;;;22.93;67.94
28289;BME280;15558;50.874;6.964;2022-07-23T06:29:05;101422.44;;;22.97;67.67
28289;BME280;15558;50.874;6.964;2022-07-23T06:31:31;101423.22;;;23.10;67.42
28289;BME280;15558;50.874;6.964;2022-07-23T06:33:57;101430.44;;;23.19;66.92
28289;BME280;15558;50.874;6.964;2022-07-23T06:36:23;101423.34;;;23.28;67.59
28289;BME280;15558;50.874;6.964;2022-07-23T06:38:49;101420.00;;;23.42;66.94
28289;BME280;15558;50.874;6.964;2022-07-23T06:41:15;101420.94;;;23.46;65.85
28289;BME280;15558;50.874;6.964;2022-07-23T06:43:41;101428.44;;;23.50;65.48
28289;BME280;15558;50.874;6.964;2022-07-23T06:46:07;101420.59;;;23.62;65.70
28289;BME280;15558;50.874;6.964;2022-07-23T06:48:33;101421.91;;;23.80;64.94
28289;BME280;15558;50.874;6.964;2022-07-23T06:51:02;101419.41;;;23.94;63.43
28289;BME280;15558;50.874;6.964;2022-07-23T06:53:28;101425.88;;;23.91;63.93
28289;BME280;15558;50.874;6.964;2022-07-23T06:55:54;101425.16;;;23.94;64.00
28289;BME280;15558;50.874;6.964;2022-07-23T06:58:20;101427.81;;;24.02;64.71
28289;BME280;15558;50.874;6.964;2022-07-23T07:00:46;101421.00;;;24.10;64.34
28289;BME280;15558;50.874;6.964;2022-07-23T07:03:12;101428.34;;;24.08;63.15
28289;BME280;15558;50.874;6.964;2022-07-23T07:05:38;101432.31;;;24.19;62.94
28289;BME280;15558;50.874;6.964;2022-07-23T07:08:05;101440.53;;;24.35;62.27
28289;BME280;15558;50.874;6.964;2022-07-23T07:10:32;101429.34;;;24.15;62.08
28289;BME280;15558;50.874;6.964;2022-07-23T07:12:58;101434.72;;;24.17;61.60
28289;BME280;15558;50.874;6.964;2022-07-23T07:15:24;101438.78;;;24.31;61.74
28289;BME280;15558;50.874;6.964;2022-07-23T07:17:49;101435.41;;;24.44;61.34
28289;BME280;15558;50.874;6.964;2022-07-23T07:20:16;101440.56;;;24.54;61.56
28289;BME280;15558;50.874;6.964;2022-07-23T07:22:42;101449.13;;;24.69;61.54
28289;BME280;15558;50.874;6.964;2022-07-23T07:25:08;101447.06;;;24.51;60.89
28289;BME280;15558;50.874;6.964;2022-07-23T07:27:34;101445.06;;;24.36;60.26
28289;BME280;15558;50.874;6.964;2022-07-23T07:30:00;101450.81;;;24.21;59.87
28289;BME280;15558;50.874;6.964;2022-07-23T07:32:26;101451.03;;;24.13;61.45
28289;BME280;15558;50.874;6.964;2022-07-23T07:34:52;101451.00;;;24.28;61.66
28289;BME280;15558;50.874;6.964;2022-07-23T07:37:18;101447.63;;;24.41;60.79
28289;BME280;15558;50.874;6.964;2022-07-23T07:39:44;101449.94;;;24.70;60.87
28289;BME280;15558;50.874;6.964;2022-07-23T07:42:10;101452.13;;;24.92;61.01
28289;BME280;15558;50.874;6.964;2022-07-23T07:44:36;101450.63;;;24.98;60.14
28289;BME280;15558;50.874;6.964;2022-07-23T07:47:02;101452.81;;;25.04;58.89
28289;BME280;15558;50.874;6.964;2022-07-23T07:49:28;101456.38;;;24.98;59.40
28289;BME280;15558;50.874;6.964;2022-07-23T07:51:54;101458.53;;;24.85;59.17
28289;BME280;15558;50.874;6.964;2022-07-23T07:54:19;101458.31;;;24.94;59.14
28289;BME280;15558;50.874;6.964;2022-07-23T07:56:45;101463.50;;;24.88;59.22
28289;BME280;15558;50.874;6.964;2022-07-23T07:59:11;101462.84;;;24.95;58.85
28289;BME280;15558;50.874;6.964;2022-07-23T08:01:37;101454.41;;;25.02;58.52
28289;BME280;15558;50.874;6.964;2022-07-23T08:04:03;101464.81;;;24.91;59.70
28289;BME280;15558;50.874;6.964;2022-07-23T08:06:29;101468.28;;;24.81;59.07
28289;BME280;15558;50.874;6.964;2022-07-23T08:08:55;101471.41;;;24.76;59.50
28289;BME280;15558;50.874;6.964;2022-07-23T08:11:21;101469.50;;;24.99;58.42
28289;BME280;15558;50.874;6.964;2022-07-23T08:13:47;101478.88;;;25.14;57.97
28289;BME280;15558;50.874;6.964;2022-07-23T08:16:13;101472.72;;;25.16;57.69
28289;BME280;15558;50.874;6.964;2022-07-23T08:18:39;101475.53;;;25.31;56.90
28289;BME280;15558;50.874;6.964;2022-07-23T08:21:05;101479.78;;;25.37;56.27
28289;BME280;15558;50.874;6.964;2022-07-23T08:23:31;101477.47;;;25.65;56.67
28289;BME280;15558;50.874;6.964;2022-07-23T08:25:57;101471.91;;;25.75;55.88
28289;BME280;15558;50.874;6.964;2022-07-23T08:28:25;101481.19;;;25.87;55.09
28289;BME280;15558;50.874;6.964;2022-07-23T08:30:52;101480.72;;;25.85;55.00
28289;BME280;15558;50.874;6.964;2022-07-23T08:33:18;101486.44;;;25.60;55.32
28289;BME280;15558;50.874;6.964;2022-07-23T08:35:47;101492.75;;;25.50;55.90
28289;BME280;15558;50.874;6.964;2022-07-23T08:38:15;101490.25;;;25.67;55.18
28289;BME280;15558;50.874;6.964;2022-07-23T08:40:46;101496.84;;;26.12;56.20
28289;BME280;15558;50.874;6.964;2022-07-23T08:43:18;101480.63;;;26.48;52.79
28289;BME280;15558;50.874;6.964;2022-07-23T08:45:45;101489.81;;;26.83;51.51
28289;BME280;15558;50.874;6.964;2022-07-23T08:48:15;101496.28;;;27.02;50.79
28289;BME280;15558;50.874;6.964;2022-07-23T08:50:46;101500.13;;;26.84;50.72
28289;BME280;15558;50.874;6.964;2022-07-23T08:53:12;101502.53;;;26.56;51.35
28289;BME280;15558;50.874;6.964;2022-07-23T08:55:40;101497.28;;;26.62;51.26
28289;BME280;15558;50.874;6.964;2022-07-23T08:58:08;101495.34;;;26.69;52.10
28289;BME280;15558;50.874;6.964;2022-07-23T09:00:34;101492.06;;;26.71;51.47
28289;BME280;15558;50.874;6.964;2022-07-23T09:03:00;101489.59;;;26.69;50.14
28289;BME280;15558;50.874;6.964;2022-07-23T09:05:26;101492.09;;;27.00;50.82
28289;BME280;15558;50.874;6.964;2022-07-23T09:08:22;101489.56;;;27.24;48.50
28289;BME280;15558;50.874;6.964;2022-07-23T09:10:56;101499.50;;;27.59;49.50
28289;BME280;15558;50.874;6.964;2022-07-23T09:15:55;101491.31;;;28.00;48.05
28289;BME280;15558;50.874;6.964;2022-07-23T09:18:32;101484.47;;;28.19;46.58
28289;BME280;15558;50.874;6.964;2022-07-23T09:21:22;101488.78;;;28.42;47.12
28289;BME280;15558;50.874;6.964;2022-07-23T09:23:52;101493.13;;;28.68;46.55
28289;BME280;15558;50.874;6.964;2022-07-23T09:26:25;101505.03;;;28.10;46.70
28289;BME280;15558;50.874;6.964;2022-07-23T09:31:51;101499.72;;;28.65;46.45
28289;BME280;15558;50.874;6.964;2022-07-23T09:34:29;101500.75;;;28.97;43.95
28289;BME280;15558;50.874;6.964;2022-07-23T09:37:12;101500.06;;;29.21;43.23
28289;BME280;15558;50.874;6.964;2022-07-23T09:39:39;101493.91;;;29.22;43.10
28289;BME280;15558;50.874;6.964;2022-07-23T09:44:46;101502.38;;;29.72;41.44
28289;BME280;15558;50.874;6.964;2022-07-23T09:47:13;101499.06;;;29.73;42.71
28289;BME280;15558;50.874;6.964;2022-07-23T09:49:39;101497.41;;;29.79;42.11
28289;BME280;15558;50.874;6.964;2022-07-23T09:52:05;101489.16;;;29.92;41.72
28289;BME280;15558;50.874;6.964;2022-07-23T09:57:07;101489.25;;;30.30;40.51
28289;BME280;15558;50.874;6.964;2022-07-23T09:59:38;101486.31;;;30.54;40.95
28289;BME280;15558;50.874;6.964;2022-07-23T10:02:06;101492.13;;;30.40;40.56
28289;BME280;15558;50.874;6.964;2022-07-23T10:04:32;101487.53;;;30.01;39.86
28289;BME280;15558;50.874;6.964;2022-07-23T10:07:02;101482.63;;;30.39;40.51
28289;BME280;15558;50.874;6.964;2022-07-23T10:09:30;101481.34;;;30.85;40.41
28289;BME280;15558;50.874;6.964;2022-07-23T10:12:02;101482.94;;;30.93;38.41
28289;BME280;15558;50.874;6.964;2022-07-23T10:14:48;101483.78;;;30.97;39.65
28289;BME280;15558;50.874;6.964;2022-07-23T10:17:15;101474.66;;;30.95;39.71
28289;BME280;15558;50.874;6.964;2022-07-23T10:19:41;101475.13;;;30.83;39.98
28289;BME280;15558;50.874;6.964;2022-07-23T10:22:12;101473.81;;;31.05;38.83
28289;BME280;15558;50.874;6.964;2022-07-23T10:29:49;101462.91;;;31.37;37.22
28289;BME280;15558;50.874;6.964;2022-07-23T10:38:24;101462.91;;;31.37;37.00
28289;BME280;15558;50.874;6.964;2022-07-23T10:40:54;101463.78;;;31.34;36.25
28289;BME280;15558;50.874;6.964;2022-07-23T10:43:21;101463.72;;;31.47;36.96
28289;BME280;15558;50.874;6.964;2022-07-23T10:45:47;101459.03;;;31.67;36.68
28289;BME280;15558;50.874;6.964;2022-07-23T10:50:39;101460.03;;;32.04;36.07
28289;BME280;15558;50.874;6.964;2022-07-23T10:58:02;101461.56;;;32.22;36.22
28289;BME280;15558;50.874;6.964;2022-07-23T11:00:30;101462.59;;;31.95;33.73
28289;BME280;15558;50.874;6.964;2022-07-23T11:02:58;101457.28;;;32.37;35.20
28289;BME280;15558;50.874;6.964;2022-07-23T11:05:39;101465.66;;;32.28;33.73
28289;BME280;15558;50.874;6.964;2022-07-23T11:10:44;101457.16;;;32.01;33.56
28289;BME280;15558;50.874;6.964;2022-07-23T11:16:11;101461.16;;;32.17;33.59
28289;BME280;15558;50.874;6.964;2022-07-23T11:24:09;101446.97;;;32.33;33.61
28289;BME280;15558;50.874;6.964;2022-07-23T11:26:49;101442.63;;;32.51;34.77
28289;BME280;15558;50.874;6.964;2022-07-23T11:31:54;101445.94;;;32.53;34.12
28289;BME280;15558;50.874;6.964;2022-07-23T11:34:42;101441.47;;;32.42;33.08
28289;BME280;15558;50.874;6.964;2022-07-23T11:37:11;101441.97;;;32.73;34.77
28289;BME280;15558;50.874;6.964;2022-07-23T11:39:38;101446.72;;;32.57;33.58
28289;BME280;15558;50.874;6.964;2022-07-23T11:42:06;101446.06;;;32.39;33.81
28289;BME280;15558;50.874;6.964;2022-07-23T11:44:36;101438.34;;;32.62;33.09
28289;BME280;15558;50.874;6.964;2022-07-23T11:47:04;101448.75;;;32.60;32.57
28289;BME280;15558;50.874;6.964;2022-07-23T11:49:30;101444.44;;;32.75;30.78
28289;BME280;15558;50.874;6.964;2022-07-23T11:54:36;101448.75;;;32.63;32.07
28289;BME280;15558;50.874;6.964;2022-07-23T11:57:02;101437.81;;;32.74;34.33
28289;BME280;15558;50.874;6.964;2022-07-23T11:59:32;101438.88;;;32.51;32.86
28289;BME280;15558;50.874;6.964;2022-07-23T12:02:01;101436.38;;;32.53;32.96
28289;BME280;15558;50.874;6.964;2022-07-23T12:04:41;101429.97;;;32.68;32.77
28289;BME280;15558;50.874;6.964;2022-07-23T12:07:31;101441.50;;;32.78;33.62
28289;BME280;15558;50.874;6.964;2022-07-23T12:10:03;101434.56;;;33.05;32.17
28289;BME280;15558;50.874;6.964;2022-07-23T12:12:44;101436.53;;;33.15;32.05
28289;BME280;15558;50.874;6.964;2022-07-23T12:15:14;101440.16;;;33.23;31.70
28289;BME280;15558;50.874;6.964;2022-07-23T12:17:42;101437.06;;;33.03;31.74
28289;BME280;15558;50.874;6.964;2022-07-23T12:20:09;101429.78;;;32.89;31.57
28289;BME280;15558;50.874;6.964;2022-07-23T12:22:41;101437.00;;;32.74;32.68
28289;BME280;15558;50.874;6.964;2022-07-23T12:25:12;101433.09;;;32.90;30.63
28289;BME280;15558;50.874;6.964;2022-07-23T12:27:39;101426.19;;;33.11;32.07
28289;BME280;15558;50.874;6.964;2022-07-23T12:30:15;101436.28;;;33.36;32.14
28289;BME280;15558;50.874;6.964;2022-07-23T12:32:46;101429.66;;;33.32;32.23
28289;BME280;15558;50.874;6.964;2022-07-23T12:35:12;101431.56;;;33.12;31.25
28289;BME280;15558;50.874;6.964;2022-07-23T12:37:41;101428.00;;;33.31;31.52
28289;BME280;15558;50.874;6.964;2022-07-23T12:43:06;101430.69;;;33.15;32.44
28289;BME280;15558;50.874;6.964;2022-07-23T12:45:47;101438.81;;;33.30;31.41
28289;BME280;15558;50.874;6.964;2022-07-23T12:48:29;101441.72;;;33.34;32.45
28289;BME280;15558;50.874;6.964;2022-07-23T12:51:01;101435.88;;;33.30;30.69
28289;BME280;15558;50.874;6.964;2022-07-23T12:56:04;101437.03;;;33.07;31.42
28289;BME280;15558;50.874;6.964;2022-07-23T12:58:42;101443.06;;;32.89;30.82
28289;BME280;15558;50.874;6.964;2022-07-23T13:01:09;101439.22;;;32.59;32.54
28289;BME280;15558;50.874;6.964;2022-07-23T13:03:40;101443.56;;;32.38;32.71
28289;BME280;15558;50.874;6.964;2022-07-23T13:06:08;101449.84;;;32.36;32.89
28289;BME280;15558;50.874;6.964;2022-07-23T13:08:36;101449.84;;;32.36;31.56
28289;BME280;15558;50.874;6.964;2022-07-23T13:11:04;101447.09;;;32.16;31.76
28289;BME280;15558;50.874;6.964;2022-07-23T13:13:32;101453.31;;;32.14;33.15
28289;BME280;15558;50.874;6.964;2022-07-23T13:16:00;101448.72;;;32.17;32.01
28289;BME280;15558;50.874;6.964;2022-07-23T13:18:27;101450.75;;;32.19;32.97
28289;BME280;15558;50.874;6.964;2022-07-23T13:20:54;101451.06;;;31.78;32.67
28289;BME280;15558;50.874;6.964;2022-07-23T13:23:20;101443.25;;;31.68;32.47
28289;BME280;15558;50.874;6.964;2022-07-23T13:25:47;101445.31;;;31.71;32.62
28289;BME280;15558;50.874;6.964;2022-07-23T13:28:15;101451.19;;;31.61;33.37
28289;BME280;15558;50.874;6.964;2022-07-23T13:30:42;101450.28;;;31.74;34.88
28289;BME280;15558;50.874;6.964;2022-07-23T13:33:08;101444.97;;;31.59;33.29
28289;BME280;15558;50.874;6.964;2022-07-23T13:35:35;101451.16;;;31.64;33.59
28289;BME280;15558;50.874;6.964;2022-07-23T13:38:03;101443.72;;;31.60;32.80
28289;BME280;15558;50.874;6.964;2022-07-23T13:40:29;101442.06;;;31.59;32.71
28289;BME280;15558;50.874;6.964;2022-07-23T13:42:56;101448.69;;;31.59;33.86